Time;durP1;ratioP1;P1;durP2;ratioP2;P2;SDS_P1;SDS_P2;PMS_P1;PMS_P2;Temp;Humidity;BMP_temperature;BMP_pressure;BME280_temperature;BME280_humidity;BME280_pressure;Samples;Min_cycle;Max_cycle;Signal;HPM_P1;HPM_P2
2021/08/09 00:01:12;;;;;;;2.73;1.33;;;14.00;99.90;;;;;;5039046;28;20178;-83
2021/08/09 00:03:38;;;;;;;5.23;1.97;;;13.90;99.90;;;;;;5037168;28;20213;-83
2021/08/09 00:06:03;;;;;;;4.63;1.40;;;13.90;99.90;;;;;;5038783;28;20253;-83
2021/08/09 00:08:29;;;;;;;3.33;1.30;;;13.90;99.90;;;;;;5037216;28;20179;-83
2021/08/09 00:10:55;;;;;;;2.57;1.40;;;13.90;99.90;;;;;;5039116;28;20261;-83
2021/08/09 00:13:20;;;;;;;3.80;1.30;;;13.80;99.90;;;;;;5038840;28;20298;-83
2021/08/09 00:15:46;;;;;;;1.67;1.57;;;13.80;99.90;;;;;;5037314;28;20671;-83
2021/08/09 00:18:11;;;;;;;1.50;1.20;;;13.80;99.90;;;;;;5037559;28;20186;-83
2021/08/09 00:20:37;;;;;;;3.63;1.20;;;13.80;99.90;;;;;;5037375;28;20540;-83
2021/08/09 00:23:03;;;;;;;2.50;1.23;;;13.80;99.90;;;;;;5039012;28;20703;-83
2021/08/09 00:25:29;;;;;;;2.60;1.40;;;13.80;99.90;;;;;;5038505;28;20190;-83
2021/08/09 00:27:54;;;;;;;1.40;1.30;;;13.80;99.90;;;;;;5039100;28;20228;-83
2021/08/09 00:30:20;;;;;;;2.07;1.20;;;13.80;99.90;;;;;;5037291;28;20706;-83
2021/08/09 00:32:46;;;;;;;1.63;1.27;;;13.70;99.90;;;;;;5037109;28;20182;-83
2021/08/09 00:35:11;;;;;;;2.33;1.30;;;13.70;99.90;;;;;;5037188;28;20233;-83
2021/08/09 00:37:37;;;;;;;4.03;1.80;;;13.70;99.90;;;;;;5038034;28;20166;-83
2021/08/09 00:40:04;;;;;;;4.20;1.40;;;13.60;99.90;;;;;;5038504;28;20205;-83
2021/08/09 00:42:30;;;;;;;3.33;1.27;;;13.60;99.90;;;;;;5036659;28;20217;-83
2021/08/09 00:44:55;;;;;;;4.87;1.00;;;13.60;99.90;;;;;;5037782;28;20214;-83
2021/08/09 00:47:21;;;;;;;3.07;1.30;;;13.60;99.90;;;;;;5037945;28;20202;-83
2021/08/09 00:49:47;;;;;;;2.27;1.47;;;13.60;99.90;;;;;;5036943;28;20182;-83
2021/08/09 00:52:12;;;;;;;1.37;1.20;;;13.60;99.90;;;;;;5037966;28;20663;-83
2021/08/09 00:54:38;;;;;;;2.23;1.70;;;13.60;99.90;;;;;;5037824;28;20174;-83
2021/08/09 00:57:04;;;;;;;3.50;2.00;;;13.60;99.90;;;;;;5038564;28;20558;-82
2021/08/09 00:59:30;;;;;;;4.43;1.50;;;13.70;99.90;;;;;;5038085;28;20182;-83
2021/08/09 01:01:56;;;;;;;2.73;1.47;;;13.60;99.90;;;;;;5037274;28;20619;-83
2021/08/09 01:04:22;;;;;;;2.30;1.40;;;13.60;99.90;;;;;;5037855;28;20185;-83
2021/08/09 01:06:48;;;;;;;1.73;1.53;;;13.70;99.90;;;;;;5037473;28;20205;-82
2021/08/09 01:09:17;;;;;;;2.23;1.33;;;13.60;99.90;;;;;;5036611;28;20185;-83
2021/08/09 01:12:06;;;;;;;4.30;2.43;;;13.60;99.90;;;;;;5038134;28;20178;-82
2021/08/09 01:14:40;;;;;;;3.90;1.40;;;13.60;99.90;;;;;;5037960;28;20209;-83
2021/08/09 01:17:06;;;;;;;5.13;1.60;;;13.60;99.90;;;;;;5036574;28;20174;-82
2021/08/09 01:19:38;;;;;;;5.37;2.03;;;13.60;99.90;;;;;;5037115;28;20182;-82
2021/08/09 01:22:29;;;;;;;2.57;1.40;;;13.60;99.90;;;;;;5037578;28;20244;-83
2021/08/09 01:25:15;;;;;;;3.67;2.00;;;13.60;99.90;;;;;;5036038;28;20244;-82
2021/08/09 01:27:47;;;;;;;1.83;1.37;;;13.60;99.90;;;;;;5036198;28;20186;-82
2021/08/09 01:30:13;;;;;;;2.40;1.57;;;13.60;99.90;;;;;;5035899;28;20186;-82
2021/08/09 01:32:40;;;;;;;3.90;1.40;;;13.60;99.90;;;;;;5035994;28;20251;-83
2021/08/09 01:35:07;;;;;;;4.13;1.57;;;13.50;99.90;;;;;;5036415;28;20202;-82
2021/08/09 01:37:36;;;;;;;2.70;1.67;;;13.60;99.90;;;;;;5037335;28;20188;-82
2021/08/09 01:40:05;;;;;;;2.57;1.73;;;13.60;99.90;;;;;;5037080;28;20175;-83
2021/08/09 01:42:31;;;;;;;3.73;1.43;;;13.60;99.90;;;;;;5036680;28;20206;-82
2021/08/09 01:44:57;;;;;;;1.60;1.30;;;13.50;99.90;;;;;;5036912;28;20213;-82
2021/08/09 01:47:23;;;;;;;2.80;1.50;;;13.50;99.90;;;;;;5037277;28;20561;-83
2021/08/09 01:49:49;;;;;;;3.47;1.30;;;13.60;99.90;;;;;;5036085;28;20181;-83
2021/08/09 01:52:15;;;;;;;1.77;1.30;;;13.50;99.90;;;;;;5037637;28;20174;-83
2021/08/09 01:54:41;;;;;;;2.00;1.30;;;13.60;99.90;;;;;;5037641;28;20170;-82
2021/08/09 01:57:07;;;;;;;4.40;1.50;;;13.60;99.90;;;;;;5036502;28;20174;-83
2021/08/09 01:59:33;;;;;;;2.37;1.23;;;13.60;99.90;;;;;;5036627;28;20232;-82
2021/08/09 02:01:58;;;;;;;5.93;1.60;;;13.60;99.90;;;;;;5035490;28;20228;-82
2021/08/09 02:04:24;;;;;;;3.67;1.97;;;13.60;99.90;;;;;;5034652;28;20241;-82
2021/08/09 02:06:50;;;;;;;3.27;1.70;;;13.60;99.90;;;;;;5036680;28;20218;-83
2021/08/09 02:09:16;;;;;;;1.70;1.40;;;13.60;99.90;;;;;;5036452;28;20170;-82
2021/08/09 02:12:00;;;;;;;3.23;1.57;;;13.60;99.90;;;;;;5035288;28;20178;-83
2021/08/09 02:14:29;;;;;;;2.83;1.27;;;13.60;99.90;;;;;;5036476;28;20181;-82
2021/08/09 02:17:14;;;;;;;1.73;1.57;;;13.60;99.90;;;;;;5036453;28;20194;-82
2021/08/09 02:19:43;;;;;;;2.60;1.37;;;13.50;99.90;;;;;;5036214;28;20170;-83
2021/08/09 02:22:10;;;;;;;3.97;1.50;;;13.50;99.90;;;;;;5034956;28;20198;-83
2021/08/09 02:24:59;;;;;;;3.30;1.20;;;13.60;99.90;;;;;;5034325;28;20170;-83
2021/08/09 02:27:33;;;;;;;2.10;1.20;;;13.50;99.90;;;;;;5036636;28;20163;-83
2021/08/09 02:30:00;;;;;;;3.83;1.50;;;13.60;99.90;;;;;;5036160;28;20166;-82
2021/08/09 02:32:29;;;;;;;2.30;1.20;;;13.60;99.90;;;;;;5034860;28;20200;-83
2021/08/09 02:34:56;;;;;;;1.67;1.37;;;13.60;99.90;;;;;;5034746;28;20202;-83
2021/08/09 02:37:22;;;;;;;8.37;1.33;;;13.50;99.90;;;;;;5034515;28;20182;-83
2021/08/09 02:39:49;;;;;;;2.83;1.17;;;13.60;99.90;;;;;;5035983;28;20265;-82
2021/08/09 02:42:15;;;;;;;1.67;1.30;;;13.50;99.90;;;;;;5036098;28;20202;-83
2021/08/09 02:44:42;;;;;;;2.17;1.20;;;13.50;99.90;;;;;;5035822;28;20220;-83
2021/08/09 02:47:10;;;;;;;2.43;1.47;;;13.50;99.90;;;;;;5036034;28;20512;-83
2021/08/09 02:49:39;;;;;;;4.30;1.53;;;13.50;99.90;;;;;;5034859;28;20216;-82
2021/08/09 02:52:07;;;;;;;3.97;1.70;;;13.50;99.90;;;;;;5034355;28;20177;-83
2021/08/09 02:54:34;;;;;;;2.90;1.43;;;13.50;99.90;;;;;;5034857;28;20515;-83
2021/08/09 02:57:02;;;;;;;2.43;1.30;;;13.50;99.90;;;;;;5034433;28;20225;-83
2021/08/09 02:59:27;;;;;;;6.20;1.57;;;13.50;99.90;;;;;;5035773;28;20189;-83
2021/08/09 03:02:11;;;;;;;2.50;1.40;;;13.50;99.90;;;;;;5134735;27;20301;-81
2021/08/09 03:04:39;;;;;;;4.53;1.70;;;13.50;99.90;;;;;;5134664;28;20250;-82
2021/08/09 03:07:07;;;;;;;5.33;1.90;;;13.50;99.90;;;;;;5133509;28;20175;-81
2021/08/09 03:09:37;;;;;;;1.87;1.50;;;13.50;99.90;;;;;;5134710;27;20167;-82
2021/08/09 03:12:04;;;;;;;4.17;1.87;;;13.50;99.90;;;;;;5133706;28;20175;-82
2021/08/09 03:14:31;;;;;;;2.23;1.70;;;13.50;99.90;;;;;;5133942;28;20232;-82
2021/08/09 03:17:01;;;;;;;1.87;1.20;;;13.50;99.90;;;;;;5133911;28;20724;-81
2021/08/09 03:19:26;;;;;;;1.80;1.40;;;13.50;99.90;;;;;;5134780;27;20599;-83
2021/08/09 03:21:57;;;;;;;2.03;1.60;;;13.50;99.90;;;;;;5134770;27;20202;-82
2021/08/09 03:24:25;;;;;;;1.83;1.40;;;13.50;99.90;;;;;;5134916;27;20167;-82
2021/08/09 03:26:51;;;;;;;1.93;1.40;;;13.50;99.90;;;;;;5135031;27;20246;-82
2021/08/09 03:29:17;;;;;;;1.80;1.70;;;13.50;99.90;;;;;;5133550;28;20256;-82
2021/08/09 03:31:43;;;;;;;4.80;1.60;;;13.50;99.90;;;;;;5134358;28;20183;-82
2021/08/09 03:34:09;;;;;;;2.90;1.90;;;13.50;99.90;;;;;;5133730;28;20179;-81
2021/08/09 03:36:35;;;;;;;2.27;1.43;;;13.60;99.90;;;;;;5135199;27;20233;-82
2021/08/09 03:39:01;;;;;;;2.63;1.57;;;13.50;99.90;;;;;;5134276;28;20175;-82
2021/08/09 03:41:27;;;;;;;2.17;1.73;;;13.50;99.90;;;;;;5135203;27;20251;-82
2021/08/09 03:43:52;;;;;;;1.80;1.40;;;13.50;99.90;;;;;;5136581;27;20168;-82
2021/08/09 03:46:18;;;;;;;2.37;1.70;;;13.50;99.90;;;;;;5139864;28;20297;-82
2021/08/09 03:48:44;;;;;;;2.60;1.63;;;13.60;99.90;;;;;;5140092;27;20167;-82
2021/08/09 03:51:09;;;;;;;3.70;1.33;;;13.60;99.90;;;;;;5138891;27;20171;-82
2021/08/09 03:53:35;;;;;;;3.60;1.50;;;13.60;99.90;;;;;;5133717;27;20178;-82
2021/08/09 03:56:01;;;;;;;3.87;1.70;;;13.60;99.90;;;;;;5132040;28;20577;-83
2021/08/09 03:58:26;;;;;;;3.20;1.90;;;13.60;99.90;;;;;;5133828;27;20259;-82
2021/08/09 04:00:52;;;;;;;2.27;1.80;;;13.60;99.90;;;;;;5132196;28;20206;-83
2021/08/09 04:03:18;;;;;;;3.60;2.00;;;13.60;99.90;;;;;;5133652;27;20164;-82
2021/08/09 04:05:43;;;;;;;3.00;1.53;;;13.60;99.90;;;;;;5134688;27;20180;-82
2021/08/09 04:08:12;;;;;;;2.50;1.50;;;13.60;99.90;;;;;;5134071;27;20167;-83
2021/08/09 04:10:38;;;;;;;3.00;1.77;;;13.60;99.90;;;;;;5134180;27;20246;-83
2021/08/09 04:13:03;;;;;;;3.10;1.73;;;13.50;99.90;;;;;;5122405;27;20199;-82
2021/08/09 04:15:29;;;;;;;5.23;1.80;;;13.60;99.90;;;;;;5118854;28;20203;-83
2021/08/09 04:17:55;;;;;;;3.77;1.70;;;13.50;99.90;;;;;;5120062;27;20183;-82
2021/08/09 04:20:21;;;;;;;1.70;1.60;;;13.60;99.90;;;;;;5119961;28;20715;-84
2021/08/09 04:22:46;;;;;;;2.53;1.60;;;13.60;99.90;;;;;;5119803;28;20168;-83
2021/08/09 04:25:12;;;;;;;3.97;2.00;;;13.50;99.90;;;;;;5120643;28;20192;-83
2021/08/09 04:27:38;;;;;;;2.17;1.50;;;13.50;99.90;;;;;;5119128;28;20568;-83
2021/08/09 04:30:04;;;;;;;6.63;1.70;;;13.50;99.90;;;;;;5119376;28;20529;-83
2021/08/09 04:32:38;;;;;;;4.33;1.80;;;13.50;99.90;;;;;;5117886;28;20189;-83
2021/08/09 04:35:06;;;;;;;2.30;1.70;;;13.50;99.90;;;;;;5118041;28;20584;-83
2021/08/09 04:37:32;;;;;;;4.47;2.57;;;13.50;99.90;;;;;;5117966;28;20516;-81
2021/08/09 04:39:57;;;;;;;3.30;1.60;;;13.50;99.90;;;;;;5117607;28;20184;-81
2021/08/09 04:42:23;;;;;;;2.60;1.83;;;13.60;99.90;;;;;;5119359;28;20168;-81
2021/08/09 04:44:48;;;;;;;2.33;1.83;;;13.50;99.90;;;;;;5118219;28;20214;-82
2021/08/09 04:47:14;;;;;;;5.43;2.10;;;13.60;99.90;;;;;;5118987;28;20241;-83
2021/08/09 04:49:42;;;;;;;2.13;1.40;;;13.60;99.90;;;;;;5117853;28;20215;-83
2021/08/09 04:52:08;;;;;;;3.70;1.70;;;13.60;99.90;;;;;;5117627;28;20167;-83
2021/08/09 04:54:33;;;;;;;2.30;1.70;;;13.60;99.90;;;;;;5118558;28;20201;-83
2021/08/09 04:56:59;;;;;;;2.40;1.83;;;13.70;99.90;;;;;;5118741;28;20248;-81
2021/08/09 04:59:25;;;;;;;3.00;1.70;;;13.70;99.90;;;;;;5117496;28;20283;-81
2021/08/09 05:01:52;;;;;;;2.47;1.97;;;13.70;99.90;;;;;;5128105;28;20223;-81
2021/08/09 05:04:18;;;;;;;4.90;2.17;;;13.70;99.90;;;;;;5138262;28;20168;-81
2021/08/09 05:06:44;;;;;;;4.27;1.60;;;13.70;99.90;;;;;;5139868;28;20286;-81
2021/08/09 05:09:10;;;;;;;2.53;1.60;;;13.70;99.90;;;;;;5129943;28;20168;-81
2021/08/09 05:11:36;;;;;;;4.73;1.70;;;13.60;99.90;;;;;;5119160;28;20180;-81
2021/08/09 05:14:02;;;;;;;2.63;1.60;;;13.70;99.90;;;;;;5117772;28;20189;-81
2021/08/09 05:16:28;;;;;;;2.80;1.67;;;13.60;99.90;;;;;;5119049;28;20199;-81
2021/08/09 05:18:57;;;;;;;3.03;1.70;;;13.70;99.90;;;;;;5117669;28;20564;-81
2021/08/09 05:21:22;;;;;;;2.73;1.70;;;13.70;99.90;;;;;;5117774;28;20299;-81
2021/08/09 05:23:48;;;;;;;6.37;1.70;;;13.70;99.90;;;;;;5116742;28;20749;-82
2021/08/09 05:26:14;;;;;;;1.93;1.70;;;13.80;99.90;;;;;;5119336;28;20226;-81
2021/08/09 05:28:40;;;;;;;2.70;2.00;;;13.80;99.90;;;;;;5117587;28;20176;-81
2021/08/09 05:31:07;;;;;;;2.43;1.60;;;13.90;99.90;;;;;;5117815;28;20590;-81
2021/08/09 05:33:32;;;;;;;3.77;2.30;;;14.00;99.90;;;;;;5118642;28;20179;-81
2021/08/09 05:35:58;;;;;;;6.40;2.60;;;14.00;99.90;;;;;;5118763;28;20199;-81
2021/08/09 05:38:24;;;;;;;4.47;1.87;;;14.00;99.90;;;;;;5118717;28;20199;-81
2021/08/09 05:40:49;;;;;;;2.93;1.73;;;14.10;99.90;;;;;;5118847;28;20232;-81
2021/08/09 05:43:15;;;;;;;4.37;1.67;;;14.20;99.90;;;;;;5118572;28;20633;-82
2021/08/09 05:45:40;;;;;;;3.17;1.30;;;14.20;99.90;;;;;;5118887;28;20656;-81
2021/08/09 05:48:06;;;;;;;1.50;1.40;;;14.20;99.90;;;;;;5119431;28;20211;-81
2021/08/09 05:50:32;;;;;;;2.13;1.60;;;14.30;99.90;;;;;;5119059;28;20220;-81
2021/08/09 05:52:57;;;;;;;4.67;1.20;;;14.40;99.90;;;;;;5118933;28;20172;-81
2021/08/09 05:55:25;;;;;;;5.03;1.50;;;14.40;99.90;;;;;;5116946;28;20199;-81
2021/08/09 05:57:51;;;;;;;3.47;1.37;;;14.40;99.90;;;;;;5117448;28;20183;-81
2021/08/09 06:00:17;;;;;;;4.17;1.50;;;14.50;99.90;;;;;;5118370;28;20217;-81
2021/08/09 06:02:43;;;;;;;5.73;1.40;;;14.60;99.90;;;;;;5117234;28;20175;-81
2021/08/09 06:05:09;;;;;;;2.33;1.40;;;14.60;99.90;;;;;;5119292;28;20259;-81
2021/08/09 06:07:35;;;;;;;2.43;1.20;;;14.70;99.90;;;;;;5118266;28;20195;-81
2021/08/09 06:10:00;;;;;;;2.47;1.23;;;14.70;99.90;;;;;;5118845;28;20656;-81
2021/08/09 06:12:26;;;;;;;6.63;1.63;;;14.80;99.90;;;;;;5117282;28;20175;-81
2021/08/09 06:14:52;;;;;;;2.70;1.40;;;14.90;99.90;;;;;;5118139;28;20171;-81
2021/08/09 06:17:17;;;;;;;5.40;1.30;;;15.00;99.90;;;;;;5117844;28;20296;-81
2021/08/09 06:19:43;;;;;;;4.07;1.40;;;15.00;99.90;;;;;;5117598;28;20262;-81
2021/08/09 06:22:09;;;;;;;3.77;1.60;;;15.00;99.90;;;;;;5116867;28;20217;-81
2021/08/09 06:24:34;;;;;;;2.63;1.33;;;15.00;99.90;;;;;;5117096;28;20175;-81
2021/08/09 06:27:00;;;;;;;2.57;1.20;;;15.00;99.90;;;;;;5116875;28;20195;-81
2021/08/09 06:29:26;;;;;;;7.50;1.30;;;15.00;99.90;;;;;;5116629;28;20179;-81
2021/08/09 06:31:52;;;;;;;2.23;1.30;;;15.10;99.90;;;;;;5117731;28;20213;-81
2021/08/09 06:34:17;;;;;;;3.40;1.13;;;15.10;99.90;;;;;;5117050;28;20171;-81
2021/08/09 06:36:43;;;;;;;1.67;1.40;;;15.20;99.90;;;;;;5116222;28;20195;-81
2021/08/09 06:39:11;;;;;;;2.53;1.10;;;15.20;99.90;;;;;;5115952;28;20604;-81
2021/08/09 06:41:37;;;;;;;4.40;1.40;;;15.30;99.90;;;;;;5117806;28;20191;-81
2021/08/09 06:44:03;;;;;;;3.80;1.40;;;15.40;99.90;;;;;;5115752;28;20328;-81
2021/08/09 06:46:28;;;;;;;2.70;1.30;;;15.60;99.90;;;;;;5115532;28;20226;-81
2021/08/09 06:48:55;;;;;;;1.97;1.20;;;15.70;99.90;;;;;;5116029;28;20529;-81
2021/08/09 06:51:21;;;;;;;3.53;1.43;;;15.90;99.90;;;;;;5117777;28;20167;-81
2021/08/09 06:53:46;;;;;;;5.10;1.40;;;16.10;99.90;;;;;;5117150;28;20179;-81
2021/08/09 06:56:14;;;;;;;5.00;1.30;;;16.20;99.90;;;;;;5117759;28;20649;-81
2021/08/09 06:58:40;;;;;;;3.63;1.30;;;16.30;99.90;;;;;;5116935;28;20187;-81
2021/08/09 07:01:06;;;;;;;2.50;1.10;;;16.30;99.90;;;;;;5116174;28;20681;-81
2021/08/09 07:03:32;;;;;;;3.93;1.07;;;16.30;99.90;;;;;;5115975;28;20176;-81
2021/08/09 07:05:58;;;;;;;1.60;1.03;;;16.30;99.90;;;;;;5115624;28;20199;-81
2021/08/09 07:08:24;;;;;;;2.33;1.30;;;16.30;99.90;;;;;;5115715;28;20666;-81
2021/08/09 07:10:52;;;;;;;2.47;1.00;;;16.30;99.90;;;;;;5115759;28;20222;-81
2021/08/09 07:13:18;;;;;;;4.47;1.40;;;16.30;99.90;;;;;;5117950;28;20167;-81
2021/08/09 07:15:44;;;;;;;2.63;1.00;;;16.40;99.90;;;;;;5116035;28;20199;-81
2021/08/09 07:18:09;;;;;;;1.20;1.03;;;16.50;99.90;;;;;;5117511;28;20206;-81
2021/08/09 07:20:35;;;;;;;3.60;1.20;;;16.60;99.90;;;;;;5117396;28;20218;-81
2021/08/09 07:23:01;;;;;;;2.00;1.03;;;16.70;99.90;;;;;;5115983;28;20197;-81
2021/08/09 07:25:27;;;;;;;2.10;1.10;;;16.70;99.90;;;;;;5117265;28;20198;-81
2021/08/09 07:27:53;;;;;;;1.23;0.90;;;16.80;99.90;;;;;;5115826;28;20168;-81
2021/08/09 07:30:18;;;;;;;3.70;1.30;;;16.90;99.90;;;;;;5116113;28;20183;-81
2021/08/09 07:32:45;;;;;;;2.30;1.20;;;17.00;99.90;;;;;;5117466;28;20178;-81
2021/08/09 07:35:11;;;;;;;3.40;1.30;;;17.00;99.90;;;;;;5116784;28;20196;-81
2021/08/09 07:37:36;;;;;;;2.80;1.33;;;17.10;99.90;;;;;;5118483;28;20179;-81
2021/08/09 07:40:04;;;;;;;2.80;1.10;;;17.10;99.90;;;;;;5118242;28;20176;-81
2021/08/09 07:42:29;;;;;;;2.80;1.30;;;17.10;99.90;;;;;;5117937;28;20176;-82
2021/08/09 07:44:56;;;;;;;2.90;1.10;;;17.10;99.90;;;;;;5118651;28;20376;-81
2021/08/09 07:47:22;;;;;;;3.40;1.60;;;17.20;99.90;;;;;;5118917;28;20206;-81
2021/08/09 07:49:48;;;;;;;2.50;1.20;;;17.30;99.90;;;;;;5122087;27;20179;-81
2021/08/09 07:52:13;;;;;;;2.23;1.13;;;17.30;99.90;;;;;;5122868;28;20225;-81
2021/08/09 07:54:39;;;;;;;3.13;1.20;;;17.40;99.90;;;;;;5122608;28;20176;-81
2021/08/09 07:57:06;;;;;;;4.70;2.53;;;17.50;99.90;;;;;;5122666;28;20266;-81
2021/08/09 07:59:32;;;;;;;1.40;1.00;;;17.60;99.90;;;;;;5123435;28;20242;-81
2021/08/09 08:02:01;;;;;;;5.93;1.07;;;17.80;99.90;;;;;;5122472;28;20204;-81
2021/08/09 08:04:27;;;;;;;2.53;1.43;;;17.80;99.90;;;;;;5121761;28;20183;-81
2021/08/09 08:06:52;;;;;;;2.00;1.07;;;17.80;99.90;;;;;;5120790;28;20187;-81
2021/08/09 08:09:18;;;;;;;3.83;1.43;;;17.90;99.90;;;;;;5122776;28;20333;-82
2021/08/09 08:11:43;;;;;;;1.43;1.10;;;17.90;99.90;;;;;;5122331;28;20172;-81
2021/08/09 08:14:09;;;;;;;1.37;1.27;;;18.00;99.90;;;;;;5122231;28;20176;-81
2021/08/09 08:16:35;;;;;;;1.10;1.00;;;18.10;99.90;;;;;;5119939;28;20244;-81
2021/08/09 08:19:00;;;;;;;2.23;1.20;;;18.30;99.90;;;;;;5119911;28;20175;-81
2021/08/09 08:21:26;;;;;;;1.47;1.00;;;18.40;99.90;;;;;;5127059;28;20212;-81
2021/08/09 08:23:51;;;;;;;2.90;1.40;;;18.50;99.90;;;;;;5136949;28;20185;-82
2021/08/09 08:26:17;;;;;;;3.13;1.50;;;18.70;99.90;;;;;;5141043;28;20207;-81
2021/08/09 08:28:43;;;;;;;2.80;1.33;;;18.70;99.90;;;;;;5134759;28;20177;-81
2021/08/09 08:31:08;;;;;;;3.97;1.23;;;18.90;99.90;;;;;;5119342;28;20270;-81
2021/08/09 08:33:34;;;;;;;1.77;1.20;;;18.90;99.90;;;;;;5119548;28;20240;-81
2021/08/09 08:36:00;;;;;;;4.50;1.00;;;19.00;99.90;;;;;;5119247;27;20204;-81
2021/08/09 08:38:25;;;;;;;2.67;1.47;;;19.10;99.90;;;;;;5119733;28;20238;-81
2021/08/09 08:40:53;;;;;;;2.87;1.17;;;19.00;99.90;;;;;;5118183;28;20267;-82
2021/08/09 08:43:23;;;;;;;2.63;1.30;;;18.90;99.90;;;;;;5119054;28;20199;-81
2021/08/09 08:46:03;;;;;;;1.60;1.50;;;18.90;99.90;;;;;;5119379;28;20672;-81
2021/08/09 08:48:31;;;;;;;3.93;1.30;;;18.80;99.90;;;;;;5118304;28;20187;-81
2021/08/09 08:50:58;;;;;;;1.60;1.13;;;18.90;99.90;;;;;;5117896;28;20186;-81
2021/08/09 08:53:36;;;;;;;2.00;1.10;;;19.00;99.90;;;;;;5117912;28;20208;-80
2021/08/09 08:56:08;;;;;;;3.10;1.10;;;19.20;99.90;;;;;;5119061;28;20680;-81
2021/08/09 08:58:35;;;;;;;3.83;1.83;;;19.30;99.90;;;;;;5117386;28;20270;-81
2021/08/09 09:01:01;;;;;;;3.30;1.40;;;19.40;99.90;;;;;;5116863;28;20211;-81
2021/08/09 09:03:28;;;;;;;2.30;1.43;;;19.40;99.90;;;;;;5118519;28;20176;-81
2021/08/09 09:06:01;;;;;;;2.50;1.10;;;19.40;99.90;;;;;;5117008;28;20200;-81
2021/08/09 09:08:40;;;;;;;2.03;1.40;;;19.40;99.90;;;;;;5117325;28;20203;-80
2021/08/09 09:11:08;;;;;;;4.00;1.13;;;19.50;99.90;;;;;;5119126;28;20178;-81
2021/08/09 09:13:34;;;;;;;2.07;1.20;;;19.70;99.90;;;;;;5117244;28;20209;-81
2021/08/09 09:16:02;;;;;;;4.07;1.40;;;19.90;99.90;;;;;;5118826;28;20196;-81
2021/08/09 09:19:00;;;;;;;2.10;1.20;;;20.20;99.90;;;;;;5119026;28;20313;-82
2021/08/09 09:21:35;;;;;;;2.50;1.27;;;20.20;99.90;;;;;;5084334;28;20219;-82
2021/08/09 09:24:18;;;;;;;2.77;1.30;;;20.30;99.90;;;;;;5117273;28;20652;-82
2021/08/09 09:26:46;;;;;;;2.53;1.27;;;20.40;99.90;;;;;;5119206;28;20553;-82
2021/08/09 09:29:17;;;;;;;3.67;1.50;;;20.40;99.90;;;;;;5117875;28;20180;-82
2021/08/09 09:31:44;;;;;;;2.23;1.27;;;20.40;99.90;;;;;;5118260;28;20175;-82
2021/08/09 09:34:12;;;;;;;2.87;1.20;;;20.20;99.90;;;;;;5120722;28;20171;-83
2021/08/09 09:36:51;;;;;;;2.53;1.30;;;20.30;99.90;;;;;;5119657;28;20202;-82
2021/08/09 09:39:40;;;;;;;1.33;1.23;;;20.40;99.90;;;;;;5120428;28;20175;-83
2021/08/09 09:42:10;;;;;;;3.23;1.40;;;20.60;99.90;;;;;;5121350;28;20695;-82
2021/08/09 09:44:38;;;;;;;1.53;1.10;;;20.70;99.90;;;;;;5121625;28;20207;-83
2021/08/09 09:47:18;;;;;;;4.90;1.70;;;20.90;99.90;;;;;;5119593;28;20167;-83
2021/08/09 09:49:44;;;;;;;2.50;1.10;;;21.20;99.90;;;;;;5119809;28;20175;-83
2021/08/09 09:52:28;;;;;;;4.17;1.20;;;21.20;99.90;;;;;;5121181;28;20220;-83
2021/08/09 09:55:00;;;;;;;5.23;2.00;;;21.40;99.90;;;;;;5119796;28;20179;-83
2021/08/09 09:57:27;;;;;;;1.87;1.40;;;21.70;99.90;;;;;;5120849;28;20186;-83
2021/08/09 09:59:56;;;;;;;2.07;1.30;;;21.90;99.90;;;;;;5119494;28;20232;-83
2021/08/09 10:02:22;;;;;;;1.57;1.20;;;22.20;99.90;;;;;;5119493;28;20176;-83
2021/08/09 10:04:50;;;;;;;2.73;1.17;;;22.50;99.90;;;;;;5120943;28;20183;-83
2021/08/09 10:07:17;;;;;;;3.67;1.40;;;22.50;99.90;;;;;;5121068;28;20236;-83
2021/08/09 10:09:46;;;;;;;1.90;1.10;;;22.50;99.90;;;;;;5120682;28;20176;-83
2021/08/09 10:12:12;;;;;;;3.13;1.23;;;22.60;99.90;;;;;;5120107;28;20175;-83
2021/08/09 10:14:38;;;;;;;3.17;1.40;;;22.70;99.90;;;;;;5118446;28;20655;-83
2021/08/09 10:17:04;;;;;;;4.73;1.23;;;22.60;99.90;;;;;;5118135;28;20179;-83
2021/08/09 10:19:30;;;;;;;2.23;1.40;;;22.70;99.90;;;;;;5117303;28;20247;-83
2021/08/09 10:21:56;;;;;;;1.93;1.30;;;22.80;99.90;;;;;;5118301;28;20231;-83
2021/08/09 10:24:42;;;;;;;5.17;1.10;;;22.90;99.90;;;;;;5118163;28;20189;-83
2021/08/09 10:27:08;;;;;;;1.77;1.23;;;23.30;99.90;;;;;;5118193;28;20217;-83
2021/08/09 10:29:54;;;;;;;2.23;1.07;;;23.60;99.90;;;;;;5119856;28;20169;-83
2021/08/09 10:32:20;;;;;;;3.30;1.30;;;23.90;99.90;;;;;;5117236;28;20764;-84
2021/08/09 10:34:46;;;;;;;2.70;1.60;;;23.90;99.90;;;;;;5119147;28;20180;-83
2021/08/09 10:37:15;;;;;;;2.50;1.43;;;24.00;99.90;;;;;;5118244;28;20179;-83
2021/08/09 10:39:52;;;;;;;1.80;1.00;;;23.70;99.90;;;;;;5119081;28;20164;-83
2021/08/09 10:42:40;;;;;;;2.70;1.10;;;23.40;99.90;;;;;;5117302;28;20198;-84
2021/08/09 10:45:33;;;;;;;2.57;1.30;;;23.10;99.90;;;;;;5117290;28;20197;-83
2021/08/09 10:47:59;;;;;;;2.40;1.30;;;22.90;99.90;;;;;;5117037;28;20537;-83
2021/08/09 10:50:25;;;;;;;2.30;1.10;;;23.00;99.90;;;;;;5117954;28;20194;-83
2021/08/09 10:52:51;;;;;;;1.97;1.20;;;23.30;99.90;;;;;;5120353;28;20171;-83
2021/08/09 10:55:32;;;;;;;14.63;1.60;;;23.30;99.90;;;;;;5118991;28;20208;-83
2021/08/09 10:58:03;;;;;;;5.07;1.47;;;23.40;99.90;;;;;;5118295;28;20206;-83
2021/08/09 11:00:49;;;;;;;3.30;1.20;;;23.60;99.90;;;;;;5119155;28;20211;-84
2021/08/09 11:03:20;;;;;;;4.83;1.30;;;24.00;99.90;;;;;;5108065;28;20777;-83
2021/08/09 11:05:46;;;;;;;2.60;1.20;;;24.20;99.90;;;;;;5119267;28;20190;-83
2021/08/09 11:08:18;;;;;;;2.77;1.03;;;24.60;99.90;;;;;;5119195;28;20614;-83
2021/08/09 11:10:57;;;;;;;3.50;1.10;;;24.90;99.90;;;;;;5119125;28;20675;-83
2021/08/09 11:13:24;;;;;;;8.33;1.93;;;25.20;99.90;;;;;;5120336;28;20171;-84
2021/08/09 11:15:54;;;;;;;9.23;1.40;;;25.30;99.90;;;;;;5120809;28;20205;-84
2021/08/09 11:18:20;;;;;;;5.10;1.20;;;25.50;99.90;;;;;;5118983;28;20292;-83
2021/08/09 11:20:45;;;;;;;2.80;1.20;;;25.40;99.90;;;;;;5118917;28;20705;-83
2021/08/09 11:23:14;;;;;;;1.87;1.10;;;25.40;99.90;;;;;;5122505;28;20171;-85
2021/08/09 11:25:44;;;;;;;2.57;1.20;;;25.30;99.90;;;;;;5123909;28;20274;-83
2021/08/09 11:28:18;;;;;;;4.23;1.50;;;25.00;99.90;;;;;;5122465;28;20186;-84
2021/08/09 11:30:55;;;;;;;3.37;1.30;;;24.90;99.90;;;;;;5120995;28;20177;-83
2021/08/09 11:33:41;;;;;;;2.07;1.00;;;24.60;99.90;;;;;;5119685;28;20182;-82
2021/08/09 11:36:12;;;;;;;2.67;1.33;;;24.50;99.90;;;;;;5118191;28;20252;-82
2021/08/09 11:38:49;;;;;;;1.90;1.33;;;24.50;99.90;;;;;;5131026;28;20167;-83
2021/08/09 11:41:17;;;;;;;2.70;1.10;;;24.60;99.90;;;;;;5142916;28;20208;-83
2021/08/09 11:43:44;;;;;;;1.67;1.07;;;24.70;99.90;;;;;;5142731;28;20192;-84
2021/08/09 11:46:13;;;;;;;1.93;1.20;;;24.60;99.90;;;;;;5130518;28;20225;-83
2021/08/09 11:48:40;;;;;;;4.00;1.20;;;24.50;99.90;;;;;;5123989;28;20172;-83
2021/08/09 11:51:07;;;;;;;1.70;1.00;;;24.40;99.90;;;;;;5124195;28;20175;-83
2021/08/09 11:53:33;;;;;;;2.47;1.07;;;24.40;99.90;;;;;;5121837;28;20543;-83
2021/08/09 11:56:14;;;;;;;4.70;1.40;;;24.40;99.90;;;;;;5124106;28;20205;-83
2021/08/09 11:58:41;;;;;;;2.43;1.30;;;24.40;99.90;;;;;;5122134;28;20543;-83
2021/08/09 12:01:07;;;;;;;1.97;1.20;;;24.70;99.90;;;;;;5120399;28;20612;-83
2021/08/09 12:03:33;;;;;;;3.33;1.30;;;25.20;99.90;;;;;;5123728;28;20170;-84
2021/08/09 12:06:22;;;;;;;4.03;1.10;;;25.60;99.90;;;;;;5122155;28;20199;-84
2021/08/09 12:08:54;;;;;;;1.47;1.10;;;25.40;99.90;;;;;;5122278;28;20225;-84
2021/08/09 12:11:28;;;;;;;5.00;1.50;;;25.00;99.90;;;;;;5121919;28;20185;-83
2021/08/09 12:14:13;;;;;;;1.90;1.30;;;24.60;99.90;;;;;;5122051;28;20272;-83
2021/08/09 12:16:45;;;;;;;4.07;1.30;;;24.10;99.90;;;;;;5121706;28;20634;-83
2021/08/09 12:19:15;;;;;;;4.03;1.33;;;23.60;99.90;;;;;;5123422;28;20241;-83
2021/08/09 12:21:42;;;;;;;2.10;1.30;;;23.20;99.90;;;;;;5121371;28;20215;-83
2021/08/09 12:24:20;;;;;;;2.40;1.30;;;22.80;99.90;;;;;;5122370;28;20176;-83
2021/08/09 12:26:47;;;;;;;3.33;1.37;;;22.80;99.90;;;;;;5121785;28;20198;-83
2021/08/09 12:29:23;;;;;;;5.90;1.97;;;23.40;99.90;;;;;;5122932;28;20180;-82
2021/08/09 12:31:50;;;;;;;3.23;1.30;;;24.00;99.90;;;;;;5122639;28;20668;-83
2021/08/09 12:34:21;;;;;;;1.27;1.17;;;24.50;99.90;;;;;;5121053;28;20203;-83
2021/08/09 12:36:48;;;;;;;3.17;1.37;;;25.20;99.90;;;;;;5120850;28;20202;-83
2021/08/09 12:39:35;;;;;;;3.77;1.23;;;25.40;99.90;;;;;;5121633;28;20184;-83
2021/08/09 12:42:21;;;;;;;2.27;1.30;;;25.20;99.90;;;;;;5121618;28;20199;-83
2021/08/09 12:44:50;;;;;;;2.90;1.40;;;24.90;99.90;;;;;;5121582;28;20172;-83
2021/08/09 12:47:17;;;;;;;4.10;1.13;;;25.20;99.90;;;;;;5121564;28;20175;-83
2021/08/09 12:49:43;;;;;;;4.03;1.40;;;25.60;99.90;;;;;;5122636;28;20231;-83
2021/08/09 12:52:10;;;;;;;2.70;1.40;;;25.70;99.90;;;;;;5120448;28;20187;-83
2021/08/09 12:54:36;;;;;;;2.00;1.30;;;25.70;99.90;;;;;;5123062;28;20175;-83